This is the latest recevied weather packets stored in our database for station/object F4FSZ-11. If no packets are shown the sender has not sent any weather packets the latest 10 day(s).
| Time | Temp. | Humidity | Pressure | Rain* | Wind** | Luminosity | Snow |
|---|---|---|---|---|---|---|---|
| 1778011436 | 12.78° C | 100% | 1002.7 hPa | - | - | - | - |
| 1778010536 | 12.78° C | 100% | 1002.7 hPa | - | - | - | - |
| 1778009636 | 12.22° C | 100% | 1002.6 hPa | - | - | - | - |
| 1778008736 | 12.78° C | 100% | 1002.5 hPa | - | - | - | - |
| 1778007836 | 12.78° C | 100% | 1002.3 hPa | - | - | - | - |
| 1778006936 | 13.33° C | 100% | 1002.4 hPa | - | - | - | - |
| 1778006036 | 13.89° C | 100% | 1002.3 hPa | - | - | - | - |
| 1778005136 | 13.89° C | 100% | 1002.3 hPa | - | - | - | - |
| 1778004236 | 14.44° C | 100% | 1002.2 hPa | - | - | - | - |
| 1778003336 | 15° C | 94% | 1002.1 hPa | - | - | - | - |
| 1778002435 | 16.11° C | 91% | 1001.9 hPa | - | - | - | - |
| 1778001535 | 16.11° C | 89% | 1002.1 hPa | - | - | - | - |
| 1778000635 | 16.11° C | 97% | 1002.2 hPa | - | - | - | - |
| 1777999735 | 15° C | 100% | 1002.2 hPa | - | - | - | - |
| 1777998835 | 15.56° C | 95% | 1002.2 hPa | - | - | - | - |
| 1777997935 | 15° C | 99% | 1002.1 hPa | - | - | - | - |
| 1777997035 | 15° C | 98% | 1002 hPa | - | - | - | - |
| 1777996135 | 16.67° C | 87% | 1001.9 hPa | - | - | - | - |
| 1777995235 | 18.89° C | 78% | 1001.9 hPa | - | - | - | - |
| 1777993435 | 18.89° C | 78% | 1001.9 hPa | - | - | - | - |
| 1777992535 | 17.78° C | 88% | 1002 hPa | - | - | - | - |
| 1777991635 | 15.56° C | 94% | 1002 hPa | - | - | - | - |
| 1777990735 | 16.11° C | 90% | 1002.1 hPa | - | - | - | - |
| 1777989835 | 16.11° C | 90% | 1002.1 hPa | - | - | - | - |
| 1777988935 | 16.67° C | 88% | 1002.2 hPa | - | - | - | - |
* Rain since midnight (hover to see other rain measurements)
** Current wind speed in m/s (hover to see current wind gust speed)